Time;durP1;ratioP1;P1;durP2;ratioP2;P2;SDS_P1;SDS_P2;PMS_P1;PMS_P2;Temp;Humidity;BMP_temperature;BMP_pressure;BME280_temperature;BME280_humidity;BME280_pressure;Samples;Min_cycle;Max_cycle;Signal;HPM_P1;HPM_P2
2021/04/02 00:02:51;;;;;;;8.30;2.87;;;;;;;9.21;51.33;102222.81;3957072;32;15722557;-74
2021/04/02 00:05:19;;;;;;;12.65;4.07;;;;;;;9.21;51.33;102222.81;4434551;32;20017;-73
2021/04/02 00:07:45;;;;;;;9.15;3.28;;;;;;;8.74;51.81;102210.91;4436946;32;20077;-73
2021/04/02 00:10:16;;;;;;;8.18;2.47;;;;;;;8.63;51.75;102216.47;4436217;32;20044;-74
2021/04/02 00:12:43;;;;;;;10.32;2.20;;;;;;;8.67;51.33;102211.66;4423507;32;20029;-73
2021/04/02 00:15:11;;;;;;;9.82;1.98;;;;;;;8.56;51.12;102216.37;4437852;32;20094;-73
2021/04/02 00:17:37;;;;;;;8.82;2.00;;;;;;;8.49;51.05;102209.91;4433940;32;20096;-73
2021/04/02 00:20:07;;;;;;;4.90;2.10;;;;;;;8.40;51.34;102201.81;4434610;32;20092;-74
2021/04/02 00:22:33;;;;;;;3.10;1.60;;;;;;;8.38;51.48;102215.47;4422489;32;20055;-74
2021/04/02 00:24:59;;;;;;;6.30;2.00;;;;;;;8.33;51.54;102207.38;4435581;32;20069;-74
2021/04/02 00:27:25;;;;;;;9.30;1.58;;;;;;;8.36;51.85;102223.44;4434749;32;20096;-73
2021/04/02 00:29:51;;;;;;;7.22;1.50;;;;;;;8.40;51.42;102220.69;4433892;32;20060;-73
2021/04/02 00:32:16;;;;;;;5.62;1.52;;;;;;;8.44;51.17;102216.69;4435615;32;20037;-73
2021/04/02 00:34:42;;;;;;;5.10;1.25;;;;;;;8.40;51.58;102209.47;4438440;32;20087;-74
2021/04/02 00:37:08;;;;;;;8.45;1.73;;;;;;;8.45;51.66;102209.91;4434550;32;20041;-73
2021/04/02 00:39:33;;;;;;;4.25;1.23;;;;;;;8.40;51.68;102215.84;4436182;32;20095;-74
2021/04/02 00:41:59;;;;;;;8.25;1.55;;;;;;;8.49;51.60;102213.53;4434054;32;20118;-72
2021/04/02 00:44:25;;;;;;;8.18;1.40;;;;;;;8.51;51.49;102216.75;4438011;32;20098;-73
2021/04/02 00:46:51;;;;;;;5.07;1.52;;;;;;;8.55;51.45;102213.97;4437149;32;20077;-72
2021/04/02 00:49:16;;;;;;;6.12;1.55;;;;;;;8.61;51.60;102218.00;4433653;32;20073;-73
2021/04/02 00:51:42;;;;;;;6.95;1.60;;;;;;;8.54;51.66;102213.19;4433071;32;20121;-73
2021/04/02 00:54:08;;;;;;;3.22;1.62;;;;;;;8.64;51.27;102215.25;4432646;32;20096;-73
2021/04/02 00:56:34;;;;;;;7.53;2.08;;;;;;;8.65;51.03;102221.69;4432560;32;20096;-72
2021/04/02 00:59:00;;;;;;;8.35;1.90;;;;;;;8.56;51.56;102207.97;4436017;32;20084;-72
2021/04/02 01:01:25;;;;;;;8.32;2.30;;;;;;;8.45;51.76;102214.69;4428242;32;20090;-72
2021/04/02 01:03:53;;;;;;;6.90;2.00;;;;;;;8.49;51.40;102221.94;4424035;32;20038;-72
2021/04/02 01:06:22;;;;;;;4.28;1.33;;;;;;;8.57;51.21;102217.19;4424427;32;20063;-73
2021/04/02 01:08:48;;;;;;;5.35;1.42;;;;;;;8.53;51.70;102216.37;4424666;32;20038;-73
2021/04/02 01:11:18;;;;;;;6.75;1.50;;;;;;;8.49;51.75;102210.72;4422291;32;20437;-73
2021/04/02 01:13:47;;;;;;;9.70;2.10;;;;;;;8.66;51.43;102210.06;4413445;32;20046;-72
2021/04/02 01:16:17;;;;;;;11.12;2.10;;;;;;;8.45;51.96;102209.06;4413389;32;20042;-73
2021/04/02 01:19:23;;;;;;;5.72;2.12;;;;;;;8.54;51.68;102215.16;4412590;32;20117;-72
2021/04/02 01:25:10;;;;;;;7.50;2.40;;;;;;;8.74;51.47;102205.31;3983174;32;15078434;-73
2021/04/02 01:30:13;;;;;;;5.00;2.40;;;;;;;8.65;52.22;102211.22;3984784;32;15027405;-73
2021/04/02 01:32:43;;;;;;;5.07;1.90;;;;;;;8.66;52.18;102209.25;4434358;32;20532;-74
2021/04/02 01:37:54;;;;;;;7.80;2.37;;;;;;;9.16;50.96;102206.34;3985068;32;15022799;-74
2021/04/02 01:40:21;;;;;;;12.05;2.42;;;;;;;9.16;50.96;102206.34;4434078;32;20033;-74
2021/04/02 01:42:49;;;;;;;10.40;2.72;;;;;;;8.64;51.86;102200.41;4436868;32;20119;-73
2021/04/02 01:45:17;;;;;;;8.85;2.15;;;;;;;8.69;51.94;102202.84;4433923;32;20131;-73
2021/04/02 01:47:44;;;;;;;7.60;2.40;;;;;;;8.64;51.92;102195.59;4437950;32;20468;-73
2021/04/02 01:50:14;;;;;;;8.13;2.28;;;;;;;8.65;52.30;102204.84;4439122;32;20502;-73
2021/04/02 01:52:41;;;;;;;11.98;2.40;;;;;;;8.65;52.26;102199.22;4435541;32;20038;-74
2021/04/02 01:55:09;;;;;;;7.35;2.20;;;;;;;8.63;52.51;102190.38;4435708;32;20096;-74
2021/04/02 01:57:36;;;;;;;5.20;2.42;;;;;;;8.67;52.52;102197.62;4436494;32;20123;-73
2021/04/02 02:00:10;;;;;;;6.47;2.75;;;;;;;8.61;52.35;102193.56;4435729;32;20533;-73
2021/04/02 02:02:36;;;;;;;9.70;2.28;;;;;;;8.54;52.44;102189.91;4432903;32;20426;-74
2021/04/02 02:05:06;;;;;;;5.93;2.22;;;;;;;8.49;52.53;102187.47;4436391;32;20325;-74
2021/04/02 02:07:35;;;;;;;9.15;2.42;;;;;;;8.42;53.02;102184.59;4433101;32;20446;-74
2021/04/02 02:10:01;;;;;;;5.50;2.22;;;;;;;8.50;52.78;102191.91;4432985;32;20143;-73
2021/04/02 02:12:27;;;;;;;10.50;3.08;;;;;;;8.53;52.96;102199.53;4432181;32;20041;-74
2021/04/02 02:14:57;;;;;;;6.65;2.28;;;;;;;8.50;53.21;102189.87;4435524;32;20069;-73
2021/04/02 02:17:24;;;;;;;7.78;2.30;;;;;;;8.54;53.17;102189.91;4434147;32;20491;-73
2021/04/02 02:19:51;;;;;;;5.68;2.45;;;;;;;8.81;52.68;102180.09;4431079;32;20034;-74
2021/04/02 02:22:18;;;;;;;5.35;2.42;;;;;;;8.82;52.64;102185.31;4432854;32;20017;-73
2021/04/02 02:24:45;;;;;;;8.60;2.35;;;;;;;8.82;52.43;102182.50;4432533;32;20128;-73
2021/04/02 02:27:10;;;;;;;7.80;2.20;;;;;;;8.74;52.58;102178.03;4433504;32;20049;-73
2021/04/02 02:29:36;;;;;;;9.40;2.60;;;;;;;8.73;52.75;102179.22;4432377;32;20115;-74
2021/04/02 02:32:04;;;;;;;11.12;2.85;;;;;;;8.79;52.38;102182.47;4432457;32;20099;-73
2021/04/02 02:34:30;;;;;;;5.40;2.97;;;;;;;8.75;52.41;102185.28;4435866;32;20081;-73
2021/04/02 02:36:59;;;;;;;9.43;3.87;;;;;;;8.76;52.57;102178.44;4431671;32;20217;-73
2021/04/02 02:39:25;;;;;;;10.38;3.65;;;;;;;8.77;52.41;102185.66;4430903;32;20186;-73
2021/04/02 02:41:52;;;;;;;10.70;3.78;;;;;;;8.66;52.61;102181.19;4433066;32;20080;-73
2021/04/02 02:44:18;;;;;;;6.45;3.05;;;;;;;8.60;52.53;102182.75;4435650;32;20074;-73
2021/04/02 02:46:44;;;;;;;5.40;2.30;;;;;;;8.63;52.76;102177.16;4431370;32;20078;-74
2021/04/02 02:51:50;;;;;;;7.50;2.30;;;;;;;8.76;52.43;102174.81;3985723;32;15024127;-72
2021/04/02 02:54:21;;;;;;;7.25;2.15;;;;;;;8.70;52.55;102170.78;4440475;32;20065;-73
2021/04/02 02:56:50;;;;;;;7.90;2.33;;;;;;;8.70;52.58;102171.59;4440488;32;20056;-74
2021/04/02 02:59:20;;;;;;;8.45;2.15;;;;;;;8.76;52.10;102172.03;4439865;32;20026;-73
2021/04/02 03:01:47;;;;;;;5.47;2.00;;;;;;;8.80;52.01;102170.06;4429613;32;20056;-73
2021/04/02 03:04:15;;;;;;;4.75;1.80;;;;;;;8.73;52.19;102179.22;4424609;32;20107;-73
2021/04/02 03:06:42;;;;;;;10.00;2.37;;;;;;;8.76;52.47;102169.22;4426990;32;20069;-74
2021/04/02 03:09:11;;;;;;;10.57;2.80;;;;;;;8.76;52.39;102164.41;4424212;32;20038;-73
2021/04/02 03:11:37;;;;;;;10.18;2.42;;;;;;;8.68;52.74;102171.16;4422780;32;20136;-73
2021/04/02 03:14:04;;;;;;;8.27;2.10;;;;;;;8.50;52.59;102166.66;4426548;32;20138;-73
2021/04/02 03:16:31;;;;;;;9.50;2.97;;;;;;;8.66;52.15;102172.75;4424371;32;20125;-73
2021/04/02 03:18:59;;;;;;;4.78;2.20;;;;;;;8.69;52.18;102164.38;4423025;32;20170;-73
2021/04/02 03:21:26;;;;;;;14.57;2.45;;;;;;;8.71;52.33;102164.78;4425523;32;20165;-73
2021/04/02 03:23:53;;;;;;;6.28;2.70;;;;;;;8.74;52.11;102164.00;4424923;32;20079;-73
2021/04/02 03:26:20;;;;;;;9.20;2.83;;;;;;;8.70;52.35;102168.78;4423929;32;20519;-74
2021/04/02 03:28:48;;;;;;;9.63;2.95;;;;;;;8.76;51.90;102158.78;4423348;32;20089;-72
2021/04/02 03:31:16;;;;;;;7.78;2.45;;;;;;;8.77;51.67;102171.63;4424037;32;20065;-73
2021/04/02 03:33:50;;;;;;;11.02;2.90;;;;;;;8.84;51.98;102168.06;4425069;32;20053;-73
2021/04/02 03:36:19;;;;;;;7.00;1.90;;;;;;;8.74;52.19;102172.41;4426022;32;20021;-73
2021/04/02 03:38:46;;;;;;;7.40;2.17;;;;;;;8.76;52.19;102164.41;4422923;32;20200;-72
2021/04/02 03:41:17;;;;;;;5.60;2.33;;;;;;;8.79;52.38;102168.44;4424236;32;20618;-72
2021/04/02 03:43:46;;;;;;;6.95;2.10;;;;;;;8.73;52.32;102161.56;4424649;32;20426;-72
2021/04/02 03:46:14;;;;;;;8.98;2.37;;;;;;;8.76;52.07;102167.22;4424352;32;20440;-72
2021/04/02 03:48:41;;;;;;;10.55;2.20;;;;;;;8.69;52.57;102167.19;4423443;32;20495;-73
2021/04/02 03:51:09;;;;;;;11.57;2.37;;;;;;;8.68;52.49;102165.56;4422370;32;20150;-73
2021/04/02 03:53:42;;;;;;;11.63;3.12;;;;;;;8.72;52.05;102160.78;4423470;32;20038;-72
2021/04/02 03:56:11;;;;;;;9.73;2.67;;;;;;;8.71;52.51;102156.34;4421458;32;20087;-72
2021/04/02 03:58:41;;;;;;;8.02;1.80;;;;;;;8.81;52.27;102166.81;4424738;32;20522;-73
2021/04/02 04:01:12;;;;;;;8.73;1.70;;;;;;;8.76;52.10;102156.00;4420686;32;20030;-72
2021/04/02 04:03:40;;;;;;;6.90;1.48;;;;;;;8.90;51.93;102163.69;4413132;32;20037;-73
2021/04/02 04:06:09;;;;;;;6.53;1.90;;;;;;;8.84;52.14;102171.66;4413968;32;20499;-72
2021/04/02 04:08:36;;;;;;;6.07;2.03;;;;;;;8.75;52.28;102160.00;4412514;32;20035;-72
2021/04/02 04:11:03;;;;;;;6.97;1.98;;;;;;;8.84;52.22;102174.47;4412616;32;20042;-74
2021/04/02 04:13:33;;;;;;;6.20;1.98;;;;;;;8.73;52.43;102165.19;4413713;32;20029;-73
2021/04/02 04:16:00;;;;;;;9.65;2.22;;;;;;;8.78;52.15;102162.03;4409654;32;20368;-72
2021/04/02 04:18:27;;;;;;;11.68;1.92;;;;;;;8.69;52.78;102169.19;4413450;32;20034;-71
2021/04/02 04:20:56;;;;;;;5.22;2.37;;;;;;;8.72;52.84;102171.19;4411608;32;20124;-74
2021/04/02 04:23:23;;;;;;;4.93;2.00;;;;;;;8.66;53.16;102167.97;4411962;32;20054;-74
2021/04/02 04:25:54;;;;;;;4.40;1.95;;;;;;;8.76;53.03;102174.81;4415278;32;20034;-73
2021/04/02 04:28:22;;;;;;;6.65;2.35;;;;;;;8.87;52.93;102173.69;4413240;32;20035;-74
2021/04/02 04:30:51;;;;;;;9.63;2.67;;;;;;;8.91;53.10;102177.34;4414021;32;20034;-74
2021/04/02 04:33:18;;;;;;;10.02;2.40;;;;;;;8.91;53.28;102176.53;4411210;32;20092;-74
2021/04/02 04:35:46;;;;;;;6.32;1.90;;;;;;;8.94;53.32;102184.97;4413477;32;20046;-73
2021/04/02 04:38:13;;;;;;;12.40;2.67;;;;;;;8.95;53.29;102188.56;4411759;32;20108;-73
2021/04/02 04:40:39;;;;;;;6.68;2.30;;;;;;;8.96;53.53;102190.97;4414046;32;20438;-73
2021/04/02 04:43:09;;;;;;;4.97;2.00;;;;;;;8.87;53.73;102186.94;4411287;32;20453;-72
2021/04/02 04:45:35;;;;;;;10.25;2.00;;;;;;;8.91;53.63;102188.56;4413128;32;20104;-71
2021/04/02 04:48:02;;;;;;;11.57;2.20;;;;;;;8.91;53.61;102184.94;4410287;32;20077;-72
2021/04/02 04:50:28;;;;;;;7.32;1.90;;;;;;;8.88;54.01;102174.50;4411552;32;20693;-72
2021/04/02 04:53:01;;;;;;;9.02;2.12;;;;;;;8.88;54.05;102171.69;4411668;32;20064;-72
2021/04/02 04:55:28;;;;;;;8.60;2.67;;;;;;;8.92;54.07;102176.13;4413665;32;20178;-72
2021/04/02 04:57:58;;;;;;;7.97;2.55;;;;;;;8.80;54.42;102179.25;4414060;32;20141;-71
2021/04/02 05:00:24;;;;;;;9.85;2.60;;;;;;;8.84;54.28;102174.47;4414279;32;20120;-72
2021/04/02 05:02:52;;;;;;;11.80;3.45;;;;;;;7.31;54.32;101968.28;4408329;32;20375;-73
2021/04/02 05:05:25;;;;;;;7.72;2.70;;;;;;;8.77;54.34;102177.25;4413427;32;20038;-72
2021/04/02 05:07:53;;;;;;;7.62;2.08;;;;;;;8.76;54.41;102186.88;4410155;32;20061;-73
2021/04/02 05:10:20;;;;;;;11.93;2.28;;;;;;;8.83;54.27;102195.31;4414098;32;20046;-72
2021/04/02 05:12:48;;;;;;;10.82;2.35;;;;;;;8.84;54.28;102191.31;4420745;32;20064;-73
2021/04/02 05:15:16;;;;;;;9.70;1.70;;;;;;;8.81;54.03;102183.66;4410844;32;20095;-73
2021/04/02 05:17:43;;;;;;;10.68;2.40;;;;;;;8.78;54.38;102194.91;4412425;32;20074;-73
2021/04/02 05:20:09;;;;;;;4.95;2.50;;;;;;;8.81;54.30;102194.91;4412900;32;20038;-73
2021/04/02 05:22:36;;;;;;;4.57;2.65;;;;;;;8.74;53.99;102183.63;4411655;32;20422;-73
2021/04/02 05:25:04;;;;;;;10.10;2.17;;;;;;;8.84;53.54;102196.91;4409987;32;20062;-73
2021/04/02 05:27:30;;;;;;;7.55;2.03;;;;;;;8.76;53.79;102189.69;4412195;32;20041;-72
2021/04/02 05:29:55;;;;;;;7.30;2.08;;;;;;;8.80;53.54;102200.94;4412370;32;20046;-75
2021/04/02 05:32:21;;;;;;;9.52;3.33;;;;;;;8.75;53.63;102195.69;4412086;32;20435;-74
2021/04/02 05:34:47;;;;;;;6.87;1.60;;;;;;;8.68;53.87;102196.41;4414885;32;20122;-73
2021/04/02 05:37:13;;;;;;;4.65;1.35;;;;;;;8.77;53.01;102191.28;4410749;32;20081;-74
2021/04/02 05:39:39;;;;;;;8.13;1.75;;;;;;;8.62;53.29;102169.91;4407780;32;20069;-73
2021/04/02 05:42:07;;;;;;;4.45;1.90;;;;;;;8.66;53.53;102184.00;4409352;32;20113;-74
2021/04/02 05:44:35;;;;;;;5.22;1.83;;;;;;;8.78;53.24;102189.28;4411301;32;20086;-74
2021/04/02 05:47:05;;;;;;;3.60;1.65;;;;;;;8.80;52.94;102189.72;4411281;32;20043;-74
2021/04/02 05:49:32;;;;;;;8.95;2.50;;;;;;;8.77;53.31;102188.47;4413546;32;20394;-74
2021/04/02 05:51:59;;;;;;;8.45;2.95;;;;;;;8.64;53.67;102186.37;4413897;32;20060;-74
2021/04/02 05:57:03;;;;;;;5.75;2.35;;;;;;;9.18;52.34;102208.78;3972138;32;15026229;-74
2021/04/02 05:59:30;;;;;;;6.07;2.30;;;;;;;9.18;52.34;102208.78;4418538;32;20088;-73
2021/04/02 06:01:55;;;;;;;9.02;2.60;;;;;;;8.74;52.66;102196.88;4418116;32;20406;-74
2021/04/02 06:04:21;;;;;;;5.95;2.17;;;;;;;8.84;52.68;102205.34;4422316;32;20406;-73
2021/04/02 06:06:49;;;;;;;8.30;1.95;;;;;;;8.84;52.83;102210.19;4420651;32;20168;-73
2021/04/02 06:09:15;;;;;;;6.10;1.95;;;;;;;8.79;52.55;102210.53;4422247;32;20060;-74
2021/04/02 06:11:41;;;;;;;5.28;1.48;;;;;;;8.88;52.41;102203.37;4419604;32;20076;-74
2021/04/02 06:14:08;;;;;;;5.75;1.85;;;;;;;8.92;52.06;102211.81;4420571;32;20115;-74
2021/04/02 06:16:33;;;;;;;8.55;1.62;;;;;;;8.96;51.79;102216.25;4419816;32;20037;-73
2021/04/02 06:19:09;;;;;;;5.95;1.50;;;;;;;9.00;51.64;102222.72;4421031;32;20430;-74
2021/04/02 06:21:56;;;;;;;7.70;1.62;;;;;;;9.04;51.09;102206.69;4418995;32;20069;-73
2021/04/02 06:24:40;;;;;;;8.68;1.60;;;;;;;8.80;51.65;102223.41;4418169;32;20146;-73
2021/04/02 06:27:08;;;;;;;6.95;1.62;;;;;;;8.82;51.88;102235.00;4420153;32;20577;-73
2021/04/02 06:29:40;;;;;;;4.12;1.62;;;;;;;8.99;51.36;102223.09;4418461;32;20014;-73
2021/04/02 06:32:08;;;;;;;4.82;1.80;;;;;;;8.97;51.39;102228.31;4419227;32;20487;-73
2021/04/02 06:34:34;;;;;;;2.90;1.30;;;;;;;9.12;51.14;102227.19;4419107;32;20127;-74
2021/04/02 06:37:01;;;;;;;6.80;1.70;;;;;;;9.15;50.88;102232.03;4420080;32;20026;-74
2021/04/02 06:39:30;;;;;;;7.65;1.55;;;;;;;9.04;51.13;102233.94;4417126;32;20140;-73
2021/04/02 06:41:58;;;;;;;5.35;1.60;;;;;;;9.11;50.84;102234.81;4421546;32;20417;-73
2021/04/02 06:44:28;;;;;;;8.93;1.60;;;;;;;9.21;50.58;102230.44;4419893;32;20038;-72
2021/04/02 06:46:56;;;;;;;6.10;1.55;;;;;;;9.19;50.97;102235.66;4417813;32;20103;-73
2021/04/02 06:49:22;;;;;;;8.45;2.03;;;;;;;9.30;50.59;102236.53;4420269;32;20150;-73
2021/04/02 06:51:50;;;;;;;11.90;2.20;;;;;;;9.24;50.90;102238.09;4418578;32;21302;-73
2021/04/02 06:54:18;;;;;;;6.12;2.40;;;;;;;9.26;51.33;102235.69;4417157;32;20127;-73
2021/04/02 06:59:29;;;;;;;6.60;2.22;;;;;;;9.95;50.09;102254.03;3983528;32;15025514;-74
2021/04/02 07:01:55;;;;;;;7.55;2.50;;;;;;;9.95;50.09;102254.03;4432056;32;20059;-74
2021/04/02 07:04:23;;;;;;;8.32;2.10;;;;;;;9.66;50.25;102253.13;4428093;32;20077;-74
2021/04/02 07:06:52;;;;;;;6.25;1.70;;;;;;;9.69;49.91;102257.16;4425644;32;20069;-73
2021/04/02 07:09:20;;;;;;;4.43;1.65;;;;;;;9.76;49.62;102257.97;4422390;32;20744;-74
2021/04/02 07:11:48;;;;;;;5.72;1.92;;;;;;;9.66;49.29;102266.38;4423952;32;20041;-73
2021/04/02 07:14:17;;;;;;;6.15;1.27;;;;;;;9.67;49.09;102274.41;4426109;32;20042;-73
2021/04/02 07:16:43;;;;;;;8.80;1.58;;;;;;;9.62;49.62;102269.19;4422190;32;20090;-73
2021/04/02 07:19:09;;;;;;;8.27;1.90;;;;;;;9.68;49.56;102273.22;4425820;32;20096;-72
2021/04/02 07:21:36;;;;;;;9.88;1.65;;;;;;;9.66;49.62;102281.25;4425025;32;20038;-73
2021/04/02 07:24:03;;;;;;;9.43;2.37;;;;;;;9.78;49.58;102280.91;4420782;32;20087;-72
2021/04/02 07:26:29;;;;;;;10.43;3.12;;;;;;;9.83;49.05;102286.16;4424987;32;20078;-72
2021/04/02 07:28:55;;;;;;;10.93;3.45;;;;;;;9.84;49.44;102281.31;4425400;32;20033;-72
2021/04/02 07:31:22;;;;;;;10.23;3.87;;;;;;;9.83;49.18;102291.78;4419741;32;20099;-74
2021/04/02 07:33:48;;;;;;;10.43;4.00;;;;;;;9.78;49.43;102289.31;4423007;32;20121;-73
2021/04/02 07:36:17;;;;;;;11.70;3.75;;;;;;;9.90;48.71;102303.03;4426662;32;20316;-72
2021/04/02 07:38:48;;;;;;;8.93;4.20;;;;;;;10.00;49.17;102295.81;4421921;32;20178;-73
2021/04/02 07:41:16;;;;;;;15.98;4.15;;;;;;;10.15;49.00;102302.34;4423378;32;20029;-73
2021/04/02 07:43:51;;;;;;;9.27;4.10;;;;;;;10.27;48.49;102294.31;4423397;32;20446;-73
2021/04/02 07:46:20;;;;;;;30.92;9.00;;;;;;;10.43;48.33;102308.03;4419699;32;20332;-73
2021/04/02 07:48:49;;;;;;;12.45;4.53;;;;;;;10.17;48.87;102295.09;4422536;32;20679;-72
2021/04/02 07:51:15;;;;;;;5.97;2.58;;;;;;;10.15;48.90;102296.72;4423020;32;20055;-73
2021/04/02 07:53:45;;;;;;;5.00;2.50;;;;;;;10.32;48.46;102308.00;4422770;32;20073;-72
2021/04/02 07:58:50;;;;;;;16.73;4.15;;;;;;;10.66;47.86;102308.44;3955909;32;15725591;-73
2021/04/02 08:01:24;;;;;;;15.73;3.75;;;;;;;10.72;47.45;102306.84;4430088;32;20048;-74
2021/04/02 08:03:52;;;;;;;11.27;3.80;;;;;;;10.86;47.16;102326.56;4428453;32;20069;-74
2021/04/02 08:06:38;;;;;;;7.57;3.62;;;;;;;10.92;46.12;102320.09;4413188;32;20157;-74
2021/04/02 08:09:07;;;;;;;7.60;3.58;;;;;;;11.01;46.22;102334.59;4423626;32;20090;-74
2021/04/02 08:14:13;;;;;;;7.87;3.22;;;;;;;11.70;45.07;102321.63;3987112;32;15023230;-74
2021/04/02 08:16:58;;;;;;;12.60;3.10;;;;;;;11.70;45.07;102321.63;4438880;32;20201;-74
2021/04/02 08:24:41;;;;;;;21.37;6.03;;;;;;;11.46;45.26;102359.09;3983243;32;15022900;-71
2021/04/02 08:27:08;;;;;;;18.52;5.35;;;;;;;11.46;45.26;102359.09;4439960;32;20025;-74
2021/04/02 08:29:40;;;;;;;33.97;10.52;;;;;;;11.08;45.43;102345.84;4437846;32;20382;-74
2021/04/02 08:32:09;;;;;;;24.52;6.72;;;;;;;10.85;45.84;102355.91;4438571;32;20720;-73
2021/04/02 08:34:37;;;;;;;10.95;3.72;;;;;;;10.90;46.16;102336.62;4434689;32;20318;-74
2021/04/02 08:37:05;;;;;;;7.35;2.87;;;;;;;10.89;46.52;102359.56;4437134;32;20053;-74
2021/04/02 08:39:31;;;;;;;6.80;2.10;;;;;;;11.09;45.96;102364.38;4437433;32;20069;-73
2021/04/02 08:42:02;;;;;;;9.02;1.42;;;;;;;11.36;44.82;102357.12;4438114;32;20099;-74
2021/04/02 08:44:37;;;;;;;8.77;1.77;;;;;;;11.65;44.22;102352.22;4435407;32;20466;-72
2021/04/02 08:47:04;;;;;;;;;;;;;;;11.92;43.78;102364.66;4441210;32;20032;-73
2021/04/02 08:49:52;;;;;;;6.28;2.00;;;;;;;11.98;43.41;102368.66;4438705;32;19995;-73
2021/04/02 08:52:26;;;;;;;9.50;1.75;;;;;;;11.83;43.44;102364.28;4438669;32;20086;-72
2021/04/02 08:54:55;;;;;;;4.65;1.80;;;;;;;11.96;43.16;102366.25;4438357;32;20081;-72
2021/04/02 08:57:24;;;;;;;6.55;2.10;;;;;;;12.22;42.46;102370.56;4439792;32;20029;-72
2021/04/02 08:59:50;;;;;;;7.53;1.90;;;;;;;12.02;42.63;102369.44;4438782;32;20042;-72
2021/04/02 09:02:17;;;;;;;8.52;2.20;;;;;;;12.31;42.41;102373.75;4433739;32;20463;-74
2021/04/02 09:04:47;;;;;;;9.30;2.22;;;;;;;12.51;41.97;102376.84;4434460;32;20443;-74
2021/04/02 09:07:14;;;;;;;22.90;6.57;;;;;;;12.63;41.56;102384.84;4431838;32;20490;-74
2021/04/02 09:09:42;;;;;;;61.42;18.60;;;;;;;12.46;41.92;102380.94;4437519;32;20041;-73
2021/04/02 09:14:49;;;;;;;78.05;22.87;;;;;;;13.04;41.35;102391.47;3956921;32;15725574;-73
2021/04/02 09:17:23;;;;;;;38.85;11.50;;;;;;;13.04;41.35;102391.47;4432703;32;20130;-74
2021/04/02 09:19:50;;;;;;;34.70;10.10;;;;;;;12.50;42.15;102381.72;4433573;32;20073;-74
2021/04/02 09:22:18;;;;;;;13.85;4.40;;;;;;;12.45;42.07;102376.47;4418256;32;20473;-74
2021/04/02 09:24:45;;;;;;;12.05;3.00;;;;;;;12.59;41.54;102382.06;4430459;32;20045;-73
2021/04/02 09:27:14;;;;;;;15.35;4.20;;;;;;;12.06;42.49;102373.06;4434553;32;20064;-73
2021/04/02 09:29:45;;;;;;;44.72;12.48;;;;;;;12.08;43.06;102377.06;4435107;32;20083;-74
2021/04/02 09:32:11;;;;;;;39.03;10.38;;;;;;;12.23;42.68;102375.00;4435905;32;20034;-74
2021/04/02 09:34:37;;;;;;;19.62;5.78;;;;;;;12.24;42.75;102378.63;4433017;32;20109;-74
2021/04/02 09:37:05;;;;;;;27.83;7.15;;;;;;;12.51;41.91;102371.19;4419071;32;20354;-74
2021/04/02 09:39:37;;;;;;;34.58;9.13;;;;;;;12.80;41.32;102373.44;4431226;32;20118;-75
2021/04/02 09:42:14;;;;;;;39.55;11.25;;;;;;;12.43;42.01;102369.66;4431712;32;20073;-75
2021/04/02 09:44:46;;;;;;;41.63;12.23;;;;;;;12.84;41.47;102385.53;4433294;32;20061;-74
2021/04/02 09:47:13;;;;;;;43.67;12.98;;;;;;;12.91;41.48;102376.97;4431207;32;20029;-74
2021/04/02 09:49:40;;;;;;;62.03;17.98;;;;;;;13.22;40.57;102384.44;4434027;32;20073;-73
2021/04/02 09:52:07;;;;;;;39.55;11.63;;;;;;;12.60;41.80;102378.00;4432604;32;20060;-73
2021/04/02 09:54:34;;;;;;;22.75;6.65;;;;;;;12.71;41.58;102372.28;4432423;32;20200;-73
2021/04/02 09:57:07;;;;;;;7.62;3.58;;;;;;;12.55;42.03;102386.13;4433299;32;20463;-73
2021/04/02 09:59:37;;;;;;;7.78;2.37;;;;;;;12.66;42.07;102384.81;4430910;32;20059;-73
2021/04/02 10:02:04;;;;;;;4.28;1.90;;;;;;;12.82;41.66;102381.50;4433652;32;20387;-73
2021/04/02 10:04:30;;;;;;;8.93;2.60;;;;;;;13.23;41.12;102390.91;4418956;32;20434;-74
2021/04/02 10:06:56;;;;;;;3.50;1.48;;;;;;;13.86;39.46;102390.25;4435251;32;20073;-73
2021/04/02 10:09:30;;;;;;;11.07;2.10;;;;;;;14.60;38.24;102389.34;4434411;32;20398;-73
2021/04/02 10:11:58;;;;;;;4.43;1.70;;;;;;;15.63;36.77;102385.19;4430120;32;20091;-73
2021/04/02 10:14:24;;;;;;;7.57;2.28;;;;;;;16.40;34.99;102393.38;4431398;32;20081;-74
2021/04/02 10:16:52;;;;;;;5.60;1.92;;;;;;;17.15;34.02;102397.72;4430751;32;20069;-73
2021/04/02 10:19:19;;;;;;;9.52;2.05;;;;;;;17.65;32.66;102388.72;4433345;32;20211;-74
2021/04/02 10:21:47;;;;;;;8.70;2.40;;;;;;;17.97;32.12;102400.03;4433301;32;20084;-74
2021/04/02 10:24:15;;;;;;;9.38;2.70;;;;;;;18.09;32.20;102404.97;4427735;32;20097;-74
2021/04/02 10:26:45;;;;;;;9.98;2.03;;;;;;;18.17;31.90;102403.53;4412639;32;20180;-74
2021/04/02 10:29:11;;;;;;;7.47;1.95;;;;;;;18.00;31.92;102398.31;4420974;32;20141;-74
2021/04/02 10:31:37;;;;;;;10.60;3.25;;;;;;;17.64;32.69;102392.78;4424223;32;20389;-74
2021/04/02 10:34:03;;;;;;;7.25;2.53;;;;;;;17.40;33.05;102403.56;4422060;32;20079;-74
2021/04/02 10:36:29;;;;;;;5.75;1.65;;;;;;;17.03;33.46;102391.94;4421957;32;20069;-74
2021/04/02 10:38:55;;;;;;;6.57;3.00;;;;;;;16.98;33.72;102404.66;4421308;32;20089;-74
2021/04/02 10:41:20;;;;;;;7.65;2.15;;;;;;;16.39;34.82;102398.25;4407073;32;20072;-74
2021/04/02 10:43:51;;;;;;;8.73;2.05;;;;;;;16.15;35.48;102401.62;4409061;32;20472;-74
2021/04/02 10:46:18;;;;;;;8.27;2.92;;;;;;;15.89;35.50;102401.31;4420884;32;20535;-74
2021/04/02 10:48:43;;;;;;;17.52;4.78;;;;;;;15.26;36.62;102393.94;4418223;32;20068;-74
2021/04/02 10:51:25;;;;;;;19.92;4.60;;;;;;;14.65;37.76;102386.81;4424953;32;20029;-74
2021/04/02 10:54:00;;;;;;;10.95;3.30;;;;;;;15.23;37.10;102391.97;4422163;32;20073;-74
2021/04/02 10:56:28;;;;;;;11.20;2.40;;;;;;;15.69;36.55;102391.19;4420425;32;20014;-74
2021/04/02 10:58:54;;;;;;;8.25;2.42;;;;;;;16.26;35.87;102399.37;4422423;32;20474;-74
2021/04/02 11:01:23;;;;;;;7.72;2.75;;;;;;;16.64;34.79;102392.84;4408814;32;20339;-75
2021/04/02 11:03:49;;;;;;;6.35;2.40;;;;;;;17.15;34.10;102394.09;4423673;32;20096;-71
2021/04/02 11:06:18;;;;;;;6.57;2.65;;;;;;;17.95;32.85;102398.88;4422861;32;20193;-73
2021/04/02 11:08:44;;;;;;;9.00;2.87;;;;;;;18.71;31.77;102404.34;4420590;32;20066;-73
2021/04/02 11:11:13;;;;;;;14.52;5.62;;;;;;;19.76;30.45;102405.72;4423177;32;20634;-73
2021/04/02 11:13:41;;;;;;;12.15;3.65;;;;;;;20.10;29.87;102407.75;4419253;32;20077;-73
2021/04/02 11:16:07;;;;;;;11.10;3.30;;;;;;;19.26;30.76;102418.06;4424014;32;20112;-74
2021/04/02 11:18:33;;;;;;;7.47;2.25;;;;;;;19.32;30.22;102396.25;4421574;32;20042;-74
2021/04/02 11:21:04;;;;;;;7.05;2.12;;;;;;;18.95;30.67;102413.34;4421159;32;20051;-74
2021/04/02 11:23:33;;;;;;;11.95;3.12;;;;;;;19.45;30.07;102410.47;4420784;32;20073;-74
2021/04/02 11:26:01;;;;;;;9.80;3.75;;;;;;;19.53;30.23;102414.69;4422663;32;20436;-74
2021/04/02 11:28:27;;;;;;;6.93;1.95;;;;;;;20.26;29.30;102414.13;4421755;32;20069;-74
2021/04/02 11:30:53;;;;;;;10.43;4.12;;;;;;;20.40;28.50;102407.84;4421825;32;20054;-74
2021/04/02 11:33:25;;;;;;;6.28;2.65;;;;;;;20.70;28.27;102417.72;4417867;32;20371;-74
2021/04/02 11:35:50;;;;;;;13.32;4.18;;;;;;;21.41;27.42;102410.69;4418089;32;20077;-73
2021/04/02 11:38:19;;;;;;;6.85;2.72;;;;;;;21.74;26.70;102406.03;4419430;32;21598;-74
2021/04/02 11:40:50;;;;;;;8.82;2.00;;;;;;;22.13;26.24;102413.69;4407222;32;20435;-74
2021/04/02 11:43:16;;;;;;;12.18;2.17;;;;;;;22.36;25.96;102418.75;4421842;32;20065;-75
2021/04/02 11:45:43;;;;;;;5.37;2.22;;;;;;;22.27;25.93;102417.97;4421423;32;20049;-74
2021/04/02 11:48:09;;;;;;;6.22;1.80;;;;;;;22.63;25.65;102415.03;4406896;32;20147;-74
2021/04/02 11:50:35;;;;;;;12.40;2.45;;;;;;;22.60;25.36;102419.69;4420107;32;20041;-75
2021/04/02 11:53:01;;;;;;;11.25;2.30;;;;;;;22.33;25.75;102424.66;4421071;32;20141;-74
2021/04/02 11:55:26;;;;;;;5.80;1.77;;;;;;;22.38;26.02;102416.19;4420583;32;20070;-74
2021/04/02 11:57:56;;;;;;;7.47;2.05;;;;;;;21.61;26.36;102403.28;4420185;32;20041;-74
2021/04/02 12:00:25;;;;;;;10.07;2.62;;;;;;;21.99;26.07;102411.44;4406916;32;20175;-75
2021/04/02 12:02:53;;;;;;;10.55;2.22;;;;;;;21.95;26.38;102418.59;4419673;32;20128;-75